sensor_id;sensor_type;location;lat;lon;timestamp;P1;durP1;ratioP1;P2;durP2;ratioP2
54795;SDS011;40693;43.884;20.340;2023-04-16T00:00:47;28.00;;;17.75;;
54795;SDS011;40693;43.884;20.340;2023-04-16T00:03:13;33.30;;;18.20;;
54795;SDS011;40693;43.884;20.340;2023-04-16T00:05:39;26.05;;;14.57;;
54795;SDS011;40693;43.884;20.340;2023-04-16T00:08:05;24.33;;;15.30;;
54795;SDS011;40693;43.884;20.340;2023-04-16T00:10:31;26.27;;;15.85;;
54795;SDS011;40693;43.884;20.340;2023-04-16T00:12:56;24.00;;;13.68;;
54795;SDS011;40693;43.884;20.340;2023-04-16T00:15:22;21.98;;;13.00;;
54795;SDS011;40693;43.884;20.340;2023-04-16T00:17:48;22.08;;;12.55;;
54795;SDS011;40693;43.884;20.340;2023-04-16T00:20:13;20.40;;;11.57;;
54795;SDS011;40693;43.884;20.340;2023-04-16T00:22:39;16.65;;;10.20;;
54795;SDS011;40693;43.884;20.340;2023-04-16T00:25:05;17.73;;;10.13;;
54795;SDS011;40693;43.884;20.340;2023-04-16T00:27:31;19.48;;;11.90;;
54795;SDS011;40693;43.884;20.340;2023-04-16T00:29:56;28.13;;;16.98;;
54795;SDS011;40693;43.884;20.340;2023-04-16T00:32:22;27.17;;;15.15;;
54795;SDS011;40693;43.884;20.340;2023-04-16T00:34:48;35.88;;;20.05;;
54795;SDS011;40693;43.884;20.340;2023-04-16T00:37:15;27.40;;;16.70;;
54795;SDS011;40693;43.884;20.340;2023-04-16T00:39:40;34.95;;;19.60;;
54795;SDS011;40693;43.884;20.340;2023-04-16T00:42:06;39.35;;;20.52;;
54795;SDS011;40693;43.884;20.340;2023-04-16T00:44:32;32.40;;;19.38;;
54795;SDS011;40693;43.884;20.340;2023-04-16T00:47:01;35.17;;;18.23;;
54795;SDS011;40693;43.884;20.340;2023-04-16T00:49:27;33.92;;;18.70;;
54795;SDS011;40693;43.884;20.340;2023-04-16T00:51:56;25.60;;;16.27;;
54795;SDS011;40693;43.884;20.340;2023-04-16T00:54:23;21.75;;;11.43;;
54795;SDS011;40693;43.884;20.340;2023-04-16T00:56:50;21.40;;;10.57;;
54795;SDS011;40693;43.884;20.340;2023-04-16T00:59:15;16.10;;;9.43;;
54795;SDS011;40693;43.884;20.340;2023-04-16T01:01:41;14.18;;;9.50;;
54795;SDS011;40693;43.884;20.340;2023-04-16T01:04:07;14.95;;;8.60;;
54795;SDS011;40693;43.884;20.340;2023-04-16T01:06:33;13.82;;;8.60;;
54795;SDS011;40693;43.884;20.340;2023-04-16T01:08:59;14.23;;;7.00;;
54795;SDS011;40693;43.884;20.340;2023-04-16T01:11:24;14.13;;;6.28;;
54795;SDS011;40693;43.884;20.340;2023-04-16T01:13:50;10.90;;;4.55;;
54795;SDS011;40693;43.884;20.340;2023-04-16T01:16:16;11.68;;;5.63;;
54795;SDS011;40693;43.884;20.340;2023-04-16T01:18:41;11.55;;;6.45;;
54795;SDS011;40693;43.884;20.340;2023-04-16T01:21:07;12.70;;;5.22;;
54795;SDS011;40693;43.884;20.340;2023-04-16T01:23:33;26.15;;;14.60;;
54795;SDS011;40693;43.884;20.340;2023-04-16T01:25:59;25.67;;;12.77;;
54795;SDS011;40693;43.884;20.340;2023-04-16T01:28:25;22.73;;;14.82;;
54795;SDS011;40693;43.884;20.340;2023-04-16T01:30:50;25.35;;;14.25;;
54795;SDS011;40693;43.884;20.340;2023-04-16T01:33:17;20.02;;;12.60;;
54795;SDS011;40693;43.884;20.340;2023-04-16T01:35:43;22.55;;;12.48;;
54795;SDS011;40693;43.884;20.340;2023-04-16T01:38:09;28.20;;;16.30;;
54795;SDS011;40693;43.884;20.340;2023-04-16T01:40:35;22.98;;;14.35;;
54795;SDS011;40693;43.884;20.340;2023-04-16T01:43:01;19.55;;;12.65;;
54795;SDS011;40693;43.884;20.340;2023-04-16T01:45:28;28.25;;;14.55;;
54795;SDS011;40693;43.884;20.340;2023-04-16T01:47:56;28.40;;;13.95;;
54795;SDS011;40693;43.884;20.340;2023-04-16T01:50:21;27.13;;;14.63;;
54795;SDS011;40693;43.884;20.340;2023-04-16T01:52:48;26.90;;;13.35;;
54795;SDS011;40693;43.884;20.340;2023-04-16T01:55:13;19.77;;;10.95;;
54795;SDS011;40693;43.884;20.340;2023-04-16T01:57:39;17.05;;;10.38;;
54795;SDS011;40693;43.884;20.340;2023-04-16T02:00:05;20.20;;;10.65;;
54795;SDS011;40693;43.884;20.340;2023-04-16T02:02:32;15.15;;;8.50;;
54795;SDS011;40693;43.884;20.340;2023-04-16T02:04:58;13.55;;;8.65;;
54795;SDS011;40693;43.884;20.340;2023-04-16T02:07:24;17.40;;;9.02;;
54795;SDS011;40693;43.884;20.340;2023-04-16T02:09:51;15.32;;;8.68;;
54795;SDS011;40693;43.884;20.340;2023-04-16T02:12:17;15.55;;;8.18;;
54795;SDS011;40693;43.884;20.340;2023-04-16T02:14:42;13.73;;;8.90;;
54795;SDS011;40693;43.884;20.340;2023-04-16T02:17:08;15.35;;;8.23;;
54795;SDS011;40693;43.884;20.340;2023-04-16T02:19:34;15.55;;;7.57;;
54795;SDS011;40693;43.884;20.340;2023-04-16T02:22:00;10.80;;;6.75;;
54795;SDS011;40693;43.884;20.340;2023-04-16T02:24:26;12.82;;;7.28;;
54795;SDS011;40693;43.884;20.340;2023-04-16T02:26:51;14.80;;;7.50;;
54795;SDS011;40693;43.884;20.340;2023-04-16T02:29:17;17.52;;;8.85;;
54795;SDS011;40693;43.884;20.340;2023-04-16T02:31:43;18.00;;;11.20;;
54795;SDS011;40693;43.884;20.340;2023-04-16T02:34:10;26.15;;;13.88;;
54795;SDS011;40693;43.884;20.340;2023-04-16T02:36:36;22.55;;;11.65;;
54795;SDS011;40693;43.884;20.340;2023-04-16T02:39:02;16.70;;;9.50;;
54795;SDS011;40693;43.884;20.340;2023-04-16T02:41:28;12.80;;;8.02;;
54795;SDS011;40693;43.884;20.340;2023-04-16T02:43:54;14.15;;;6.90;;
54795;SDS011;40693;43.884;20.340;2023-04-16T02:46:20;10.65;;;5.88;;
54795;SDS011;40693;43.884;20.340;2023-04-16T02:48:46;9.55;;;4.82;;
54795;SDS011;40693;43.884;20.340;2023-04-16T02:51:12;11.43;;;5.32;;
54795;SDS011;40693;43.884;20.340;2023-04-16T02:53:37;13.05;;;7.57;;
54795;SDS011;40693;43.884;20.340;2023-04-16T02:56:03;10.40;;;6.57;;
54795;SDS011;40693;43.884;20.340;2023-04-16T02:58:29;9.43;;;5.80;;
54795;SDS011;40693;43.884;20.340;2023-04-16T03:00:55;12.13;;;6.45;;
54795;SDS011;40693;43.884;20.340;2023-04-16T03:03:24;9.70;;;5.90;;
54795;SDS011;40693;43.884;20.340;2023-04-16T03:05:49;15.23;;;6.00;;
54795;SDS011;40693;43.884;20.340;2023-04-16T03:08:15;9.27;;;5.30;;
54795;SDS011;40693;43.884;20.340;2023-04-16T03:10:41;8.65;;;5.10;;
54795;SDS011;40693;43.884;20.340;2023-04-16T03:13:06;9.10;;;5.18;;
54795;SDS011;40693;43.884;20.340;2023-04-16T03:15:32;12.90;;;5.18;;
54795;SDS011;40693;43.884;20.340;2023-04-16T03:17:58;10.20;;;5.43;;
54795;SDS011;40693;43.884;20.340;2023-04-16T03:20:25;9.82;;;4.72;;
54795;SDS011;40693;43.884;20.340;2023-04-16T03:22:51;10.18;;;6.22;;
54795;SDS011;40693;43.884;20.340;2023-04-16T03:25:17;13.55;;;6.70;;
54795;SDS011;40693;43.884;20.340;2023-04-16T03:27:43;10.73;;;6.00;;
54795;SDS011;40693;43.884;20.340;2023-04-16T03:30:12;8.10;;;4.95;;
54795;SDS011;40693;43.884;20.340;2023-04-16T03:32:39;10.15;;;5.32;;
54795;SDS011;40693;43.884;20.340;2023-04-16T03:35:05;9.35;;;5.57;;
54795;SDS011;40693;43.884;20.340;2023-04-16T03:37:32;10.90;;;5.85;;
54795;SDS011;40693;43.884;20.340;2023-04-16T03:39:58;9.20;;;5.30;;
54795;SDS011;40693;43.884;20.340;2023-04-16T03:42:24;8.27;;;4.90;;
54795;SDS011;40693;43.884;20.340;2023-04-16T03:44:49;10.35;;;5.30;;
54795;SDS011;40693;43.884;20.340;2023-04-16T03:47:17;11.63;;;4.70;;
54795;SDS011;40693;43.884;20.340;2023-04-16T03:49:43;6.85;;;4.47;;
54795;SDS011;40693;43.884;20.340;2023-04-16T03:52:09;9.73;;;4.85;;
54795;SDS011;40693;43.884;20.340;2023-04-16T03:54:35;10.77;;;5.30;;
54795;SDS011;40693;43.884;20.340;2023-04-16T03:57:01;9.98;;;4.15;;
54795;SDS011;40693;43.884;20.340;2023-04-16T03:59:27;8.80;;;3.80;;
54795;SDS011;40693;43.884;20.340;2023-04-16T04:01:52;6.70;;;3.40;;
54795;SDS011;40693;43.884;20.340;2023-04-16T04:04:18;9.10;;;3.85;;
54795;SDS011;40693;43.884;20.340;2023-04-16T04:06:44;7.65;;;4.22;;
54795;SDS011;40693;43.884;20.340;2023-04-16T04:09:10;6.38;;;4.30;;
54795;SDS011;40693;43.884;20.340;2023-04-16T04:11:36;9.07;;;4.85;;
54795;SDS011;40693;43.884;20.340;2023-04-16T04:14:02;6.47;;;4.05;;
54795;SDS011;40693;43.884;20.340;2023-04-16T04:16:29;9.40;;;4.70;;
54795;SDS011;40693;43.884;20.340;2023-04-16T04:18:55;8.15;;;4.43;;
54795;SDS011;40693;43.884;20.340;2023-04-16T04:21:21;7.70;;;4.93;;
54795;SDS011;40693;43.884;20.340;2023-04-16T04:23:47;9.95;;;5.13;;
54795;SDS011;40693;43.884;20.340;2023-04-16T04:26:12;8.32;;;4.75;;
54795;SDS011;40693;43.884;20.340;2023-04-16T04:28:38;6.75;;;3.55;;
54795;SDS011;40693;43.884;20.340;2023-04-16T04:31:04;5.72;;;3.40;;
54795;SDS011;40693;43.884;20.340;2023-04-16T04:33:30;10.60;;;3.35;;
54795;SDS011;40693;43.884;20.340;2023-04-16T04:35:56;9.27;;;5.63;;
54795;SDS011;40693;43.884;20.340;2023-04-16T04:38:21;10.00;;;4.35;;
54795;SDS011;40693;43.884;20.340;2023-04-16T04:40:49;8.75;;;4.10;;
54795;SDS011;40693;43.884;20.340;2023-04-16T04:43:16;6.55;;;3.30;;
54795;SDS011;40693;43.884;20.340;2023-04-16T04:45:42;6.32;;;3.00;;
54795;SDS011;40693;43.884;20.340;2023-04-16T04:48:08;8.98;;;4.78;;
54795;SDS011;40693;43.884;20.340;2023-04-16T04:50:33;15.50;;;5.53;;
54795;SDS011;40693;43.884;20.340;2023-04-16T04:53:00;11.10;;;5.40;;
54795;SDS011;40693;43.884;20.340;2023-04-16T04:55:25;13.90;;;7.28;;
54795;SDS011;40693;43.884;20.340;2023-04-16T04:57:51;14.02;;;7.10;;
54795;SDS011;40693;43.884;20.340;2023-04-16T05:00:17;11.20;;;6.57;;
54795;SDS011;40693;43.884;20.340;2023-04-16T05:02:42;9.40;;;5.45;;
54795;SDS011;40693;43.884;20.340;2023-04-16T05:05:08;11.25;;;6.13;;
54795;SDS011;40693;43.884;20.340;2023-04-16T05:07:34;14.93;;;8.80;;
54795;SDS011;40693;43.884;20.340;2023-04-16T05:10:00;10.80;;;7.75;;
54795;SDS011;40693;43.884;20.340;2023-04-16T05:12:25;9.27;;;5.38;;
54795;SDS011;40693;43.884;20.340;2023-04-16T05:14:51;8.75;;;4.45;;
54795;SDS011;40693;43.884;20.340;2023-04-16T05:17:17;7.68;;;5.45;;
54795;SDS011;40693;43.884;20.340;2023-04-16T05:19:42;11.93;;;4.57;;
54795;SDS011;40693;43.884;20.340;2023-04-16T05:22:08;8.68;;;5.97;;
54795;SDS011;40693;43.884;20.340;2023-04-16T05:24:34;12.00;;;5.43;;
54795;SDS011;40693;43.884;20.340;2023-04-16T05:26:59;11.43;;;6.20;;
54795;SDS011;40693;43.884;20.340;2023-04-16T05:29:25;13.95;;;5.57;;
54795;SDS011;40693;43.884;20.340;2023-04-16T05:31:51;10.50;;;6.35;;
54795;SDS011;40693;43.884;20.340;2023-04-16T05:34:17;9.23;;;7.03;;
54795;SDS011;40693;43.884;20.340;2023-04-16T05:36:42;10.80;;;8.73;;
54795;SDS011;40693;43.884;20.340;2023-04-16T05:39:08;10.65;;;7.13;;
54795;SDS011;40693;43.884;20.340;2023-04-16T05:41:34;11.70;;;7.07;;
54795;SDS011;40693;43.884;20.340;2023-04-16T05:44:00;16.45;;;7.90;;
54795;SDS011;40693;43.884;20.340;2023-04-16T05:46:26;10.45;;;6.40;;
54795;SDS011;40693;43.884;20.340;2023-04-16T05:48:51;11.82;;;6.32;;
54795;SDS011;40693;43.884;20.340;2023-04-16T05:51:17;14.77;;;7.97;;
54795;SDS011;40693;43.884;20.340;2023-04-16T05:53:43;12.15;;;7.63;;
54795;SDS011;40693;43.884;20.340;2023-04-16T05:56:09;14.50;;;7.78;;
54795;SDS011;40693;43.884;20.340;2023-04-16T05:58:34;21.83;;;15.10;;
54795;SDS011;40693;43.884;20.340;2023-04-16T06:01:00;45.00;;;22.23;;
54795;SDS011;40693;43.884;20.340;2023-04-16T06:03:26;36.30;;;20.73;;
54795;SDS011;40693;43.884;20.340;2023-04-16T06:05:52;28.95;;;16.90;;
54795;SDS011;40693;43.884;20.340;2023-04-16T06:08:18;23.27;;;12.07;;
54795;SDS011;40693;43.884;20.340;2023-04-16T06:10:46;28.08;;;14.27;;
54795;SDS011;40693;43.884;20.340;2023-04-16T06:13:12;25.05;;;14.32;;
54795;SDS011;40693;43.884;20.340;2023-04-16T06:15:38;29.08;;;16.17;;
54795;SDS011;40693;43.884;20.340;2023-04-16T06:18:04;28.15;;;17.92;;
54795;SDS011;40693;43.884;20.340;2023-04-16T06:20:30;32.50;;;17.70;;
54795;SDS011;40693;43.884;20.340;2023-04-16T06:22:55;28.65;;;12.38;;
54795;SDS011;40693;43.884;20.340;2023-04-16T06:25:21;21.23;;;10.45;;
54795;SDS011;40693;43.884;20.340;2023-04-16T06:27:47;16.33;;;9.30;;
54795;SDS011;40693;43.884;20.340;2023-04-16T06:30:13;22.95;;;8.98;;
54795;SDS011;40693;43.884;20.340;2023-04-16T06:32:41;15.32;;;8.93;;
54795;SDS011;40693;43.884;20.340;2023-04-16T06:35:07;19.55;;;13.00;;
54795;SDS011;40693;43.884;20.340;2023-04-16T06:37:33;48.78;;;25.25;;
54795;SDS011;40693;43.884;20.340;2023-04-16T06:39:59;32.25;;;18.77;;
54795;SDS011;40693;43.884;20.340;2023-04-16T06:42:25;22.77;;;14.10;;
54795;SDS011;40693;43.884;20.340;2023-04-16T06:44:52;22.85;;;14.75;;
54795;SDS011;40693;43.884;20.340;2023-04-16T06:47:17;59.28;;;36.20;;
54795;SDS011;40693;43.884;20.340;2023-04-16T06:49:43;27.23;;;18.00;;
54795;SDS011;40693;43.884;20.340;2023-04-16T06:52:09;18.55;;;13.40;;
54795;SDS011;40693;43.884;20.340;2023-04-16T06:54:35;19.77;;;12.55;;
54795;SDS011;40693;43.884;20.340;2023-04-16T06:57:01;22.95;;;13.23;;
54795;SDS011;40693;43.884;20.340;2023-04-16T06:59:27;21.20;;;14.00;;
54795;SDS011;40693;43.884;20.340;2023-04-16T07:01:53;26.90;;;15.23;;
54795;SDS011;40693;43.884;20.340;2023-04-16T07:04:19;24.13;;;16.60;;
54795;SDS011;40693;43.884;20.340;2023-04-16T07:06:45;26.30;;;15.88;;
54795;SDS011;40693;43.884;20.340;2023-04-16T07:09:10;29.58;;;18.35;;
54795;SDS011;40693;43.884;20.340;2023-04-16T07:11:36;23.17;;;16.80;;
54795;SDS011;40693;43.884;20.340;2023-04-16T07:14:02;26.48;;;16.63;;
54795;SDS011;40693;43.884;20.340;2023-04-16T07:16:28;32.72;;;17.50;;
54795;SDS011;40693;43.884;20.340;2023-04-16T07:18:53;24.00;;;15.77;;
54795;SDS011;40693;43.884;20.340;2023-04-16T07:21:19;24.13;;;15.27;;
54795;SDS011;40693;43.884;20.340;2023-04-16T07:23:46;26.67;;;17.35;;
54795;SDS011;40693;43.884;20.340;2023-04-16T07:26:11;36.63;;;22.92;;
54795;SDS011;40693;43.884;20.340;2023-04-16T07:28:37;29.52;;;18.80;;
54795;SDS011;40693;43.884;20.340;2023-04-16T07:31:03;26.50;;;18.75;;
54795;SDS011;40693;43.884;20.340;2023-04-16T07:33:29;28.25;;;18.67;;
54795;SDS011;40693;43.884;20.340;2023-04-16T07:35:54;33.22;;;19.48;;
54795;SDS011;40693;43.884;20.340;2023-04-16T07:38:20;36.55;;;19.85;;
54795;SDS011;40693;43.884;20.340;2023-04-16T07:40:46;30.48;;;18.58;;
54795;SDS011;40693;43.884;20.340;2023-04-16T07:43:12;23.40;;;15.50;;
54795;SDS011;40693;43.884;20.340;2023-04-16T07:45:40;28.73;;;18.38;;
54795;SDS011;40693;43.884;20.340;2023-04-16T07:48:06;32.13;;;17.92;;
54795;SDS011;40693;43.884;20.340;2023-04-16T07:50:31;26.98;;;18.08;;
54795;SDS011;40693;43.884;20.340;2023-04-16T07:52:57;33.38;;;20.90;;
54795;SDS011;40693;43.884;20.340;2023-04-16T07:55:23;24.17;;;16.77;;
54795;SDS011;40693;43.884;20.340;2023-04-16T07:57:48;34.35;;;20.83;;
54795;SDS011;40693;43.884;20.340;2023-04-16T08:00:14;43.42;;;24.65;;
54795;SDS011;40693;43.884;20.340;2023-04-16T08:02:40;34.42;;;18.45;;
54795;SDS011;40693;43.884;20.340;2023-04-16T08:05:08;25.63;;;15.77;;
54795;SDS011;40693;43.884;20.340;2023-04-16T08:07:33;51.20;;;26.50;;
54795;SDS011;40693;43.884;20.340;2023-04-16T08:09:59;310.33;;;153.73;;
54795;SDS011;40693;43.884;20.340;2023-04-16T08:12:26;528.90;;;279.77;;
54795;SDS011;40693;43.884;20.340;2023-04-16T08:14:51;321.20;;;162.07;;
54795;SDS011;40693;43.884;20.340;2023-04-16T08:17:17;248.77;;;121.35;;
54795;SDS011;40693;43.884;20.340;2023-04-16T08:19:43;102.00;;;53.72;;
54795;SDS011;40693;43.884;20.340;2023-04-16T08:22:10;69.78;;;36.42;;
54795;SDS011;40693;43.884;20.340;2023-04-16T08:24:36;36.70;;;19.65;;
54795;SDS011;40693;43.884;20.340;2023-04-16T08:27:02;116.28;;;53.78;;
54795;SDS011;40693;43.884;20.340;2023-04-16T08:29:28;41.55;;;21.38;;
54795;SDS011;40693;43.884;20.340;2023-04-16T08:31:54;53.83;;;27.17;;
54795;SDS011;40693;43.884;20.340;2023-04-16T08:34:20;71.85;;;31.77;;
54795;SDS011;40693;43.884;20.340;2023-04-16T08:36:46;46.65;;;24.40;;
54795;SDS011;40693;43.884;20.340;2023-04-16T08:39:11;26.65;;;11.18;;
54795;SDS011;40693;43.884;20.340;2023-04-16T08:41:38;65.80;;;25.48;;
54795;SDS011;40693;43.884;20.340;2023-04-16T08:44:07;31.75;;;15.25;;
54795;SDS011;40693;43.884;20.340;2023-04-16T08:46:35;12.05;;;5.53;;
54795;SDS011;40693;43.884;20.340;2023-04-16T08:49:03;24.35;;;12.40;;
54795;SDS011;40693;43.884;20.340;2023-04-16T08:51:32;14.88;;;8.63;;
54795;SDS011;40693;43.884;20.340;2023-04-16T08:54:03;11.15;;;5.05;;
54795;SDS011;40693;43.884;20.340;2023-04-16T08:56:34;13.73;;;6.70;;
54795;SDS011;40693;43.884;20.340;2023-04-16T08:59:01;20.33;;;8.98;;
54795;SDS011;40693;43.884;20.340;2023-04-16T09:01:29;10.18;;;5.45;;
54795;SDS011;40693;43.884;20.340;2023-04-16T09:03:57;9.48;;;4.40;;
54795;SDS011;40693;43.884;20.340;2023-04-16T09:06:26;12.98;;;4.50;;
54795;SDS011;40693;43.884;20.340;2023-04-16T09:08:53;8.60;;;4.93;;
54795;SDS011;40693;43.884;20.340;2023-04-16T09:11:20;8.80;;;4.63;;
54795;SDS011;40693;43.884;20.340;2023-04-16T09:13:46;6.50;;;3.90;;
54795;SDS011;40693;43.884;20.340;2023-04-16T09:16:12;8.38;;;4.82;;
54795;SDS011;40693;43.884;20.340;2023-04-16T09:18:39;8.38;;;5.07;;
54795;SDS011;40693;43.884;20.340;2023-04-16T09:21:06;8.82;;;4.47;;
54795;SDS011;40693;43.884;20.340;2023-04-16T09:23:34;9.35;;;4.97;;
54795;SDS011;40693;43.884;20.340;2023-04-16T09:26:03;20.58;;;8.50;;
54795;SDS011;40693;43.884;20.340;2023-04-16T09:28:42;10.85;;;6.25;;
54795;SDS011;40693;43.884;20.340;2023-04-16T09:31:13;11.40;;;5.32;;
54795;SDS011;40693;43.884;20.340;2023-04-16T09:33:39;10.43;;;5.63;;
54795;SDS011;40693;43.884;20.340;2023-04-16T09:36:07;8.48;;;5.43;;
54795;SDS011;40693;43.884;20.340;2023-04-16T09:38:49;6.20;;;4.18;;
54795;SDS011;40693;43.884;20.340;2023-04-16T09:41:16;7.53;;;5.15;;
54795;SDS011;40693;43.884;20.340;2023-04-16T09:43:58;8.02;;;4.63;;
54795;SDS011;40693;43.884;20.340;2023-04-16T09:46:39;6.78;;;4.55;;
54795;SDS011;40693;43.884;20.340;2023-04-16T09:49:15;7.22;;;3.35;;
54795;SDS011;40693;43.884;20.340;2023-04-16T09:51:46;5.60;;;3.60;;
54795;SDS011;40693;43.884;20.340;2023-04-16T09:54:14;6.50;;;4.53;;
54795;SDS011;40693;43.884;20.340;2023-04-16T09:56:44;6.53;;;3.97;;
54795;SDS011;40693;43.884;20.340;2023-04-16T09:59:20;10.10;;;4.35;;
54795;SDS011;40693;43.884;20.340;2023-04-16T10:01:47;9.20;;;4.50;;
54795;SDS011;40693;43.884;20.340;2023-04-16T10:04:13;7.68;;;4.50;;
54795;SDS011;40693;43.884;20.340;2023-04-16T10:06:39;6.65;;;3.53;;
54795;SDS011;40693;43.884;20.340;2023-04-16T10:09:06;8.63;;;4.70;;
54795;SDS011;40693;43.884;20.340;2023-04-16T10:11:33;9.23;;;4.95;;
54795;SDS011;40693;43.884;20.340;2023-04-16T10:13:59;6.32;;;2.72;;
54795;SDS011;40693;43.884;20.340;2023-04-16T10:16:25;11.00;;;4.63;;
54795;SDS011;40693;43.884;20.340;2023-04-16T10:18:51;9.30;;;4.18;;
54795;SDS011;40693;43.884;20.340;2023-04-16T10:21:18;8.07;;;4.38;;
54795;SDS011;40693;43.884;20.340;2023-04-16T10:23:45;5.22;;;2.83;;
54795;SDS011;40693;43.884;20.340;2023-04-16T10:26:13;8.60;;;3.78;;
54795;SDS011;40693;43.884;20.340;2023-04-16T10:28:39;5.43;;;2.70;;
54795;SDS011;40693;43.884;20.340;2023-04-16T10:31:06;6.38;;;2.75;;
54795;SDS011;40693;43.884;20.340;2023-04-16T10:33:34;6.25;;;3.30;;
54795;SDS011;40693;43.884;20.340;2023-04-16T10:36:08;7.40;;;4.55;;
54795;SDS011;40693;43.884;20.340;2023-04-16T10:38:38;9.65;;;5.50;;
54795;SDS011;40693;43.884;20.340;2023-04-16T10:41:05;6.93;;;4.35;;
54795;SDS011;40693;43.884;20.340;2023-04-16T10:43:37;9.65;;;6.15;;
54795;SDS011;40693;43.884;20.340;2023-04-16T10:48:54;7.93;;;3.83;;
54795;SDS011;40693;43.884;20.340;2023-04-16T10:51:24;5.03;;;2.55;;
54795;SDS011;40693;43.884;20.340;2023-04-16T10:53:56;5.90;;;3.25;;
54795;SDS011;40693;43.884;20.340;2023-04-16T10:56:43;4.30;;;2.10;;
54795;SDS011;40693;43.884;20.340;2023-04-16T10:59:10;5.55;;;1.90;;
54795;SDS011;40693;43.884;20.340;2023-04-16T11:01:40;7.47;;;3.08;;
54795;SDS011;40693;43.884;20.340;2023-04-16T11:12:22;7.38;;;2.75;;
54795;SDS011;40693;43.884;20.340;2023-04-16T11:14:52;8.23;;;4.85;;
54795;SDS011;40693;43.884;20.340;2023-04-16T11:17:19;3.33;;;2.22;;
54795;SDS011;40693;43.884;20.340;2023-04-16T11:19:45;5.55;;;2.33;;
54795;SDS011;40693;43.884;20.340;2023-04-16T11:22:12;9.55;;;3.00;;
54795;SDS011;40693;43.884;20.340;2023-04-16T11:24:41;11.50;;;6.78;;
54795;SDS011;40693;43.884;20.340;2023-04-16T11:27:11;8.20;;;4.35;;
54795;SDS011;40693;43.884;20.340;2023-04-16T11:29:38;8.32;;;3.00;;
54795;SDS011;40693;43.884;20.340;2023-04-16T11:32:04;8.15;;;3.67;;
54795;SDS011;40693;43.884;20.340;2023-04-16T11:34:30;8.15;;;3.95;;
54795;SDS011;40693;43.884;20.340;2023-04-16T11:36:56;10.68;;;4.35;;
54795;SDS011;40693;43.884;20.340;2023-04-16T11:39:21;7.35;;;4.28;;
54795;SDS011;40693;43.884;20.340;2023-04-16T11:41:49;8.90;;;4.20;;
54795;SDS011;40693;43.884;20.340;2023-04-16T11:46:46;8.95;;;5.28;;
54795;SDS011;40693;43.884;20.340;2023-04-16T11:49:13;16.55;;;9.77;;
54795;SDS011;40693;43.884;20.340;2023-04-16T11:51:42;7.68;;;2.90;;
54795;SDS011;40693;43.884;20.340;2023-04-16T11:54:17;5.18;;;2.83;;
54795;SDS011;40693;43.884;20.340;2023-04-16T11:56:44;5.68;;;2.92;;
54795;SDS011;40693;43.884;20.340;2023-04-16T11:59:12;9.00;;;4.95;;
54795;SDS011;40693;43.884;20.340;2023-04-16T12:01:40;7.63;;;3.50;;
54795;SDS011;40693;43.884;20.340;2023-04-16T12:04:09;10.93;;;6.72;;
54795;SDS011;40693;43.884;20.340;2023-04-16T12:06:35;21.17;;;10.40;;
54795;SDS011;40693;43.884;20.340;2023-04-16T12:09:20;11.75;;;6.22;;
54795;SDS011;40693;43.884;20.340;2023-04-16T12:11:47;9.00;;;5.20;;
54795;SDS011;40693;43.884;20.340;2023-04-16T12:14:13;9.43;;;4.93;;
54795;SDS011;40693;43.884;20.340;2023-04-16T12:16:39;8.23;;;5.00;;
54795;SDS011;40693;43.884;20.340;2023-04-16T12:19:05;9.77;;;5.45;;
54795;SDS011;40693;43.884;20.340;2023-04-16T12:21:47;10.25;;;4.68;;
54795;SDS011;40693;43.884;20.340;2023-04-16T12:24:15;8.00;;;4.00;;
54795;SDS011;40693;43.884;20.340;2023-04-16T12:26:45;13.18;;;8.50;;
54795;SDS011;40693;43.884;20.340;2023-04-16T12:29:25;22.27;;;13.98;;
54795;SDS011;40693;43.884;20.340;2023-04-16T12:31:52;9.57;;;4.82;;
54795;SDS011;40693;43.884;20.340;2023-04-16T12:34:18;10.88;;;6.55;;
54795;SDS011;40693;43.884;20.340;2023-04-16T12:36:46;7.25;;;3.38;;
54795;SDS011;40693;43.884;20.340;2023-04-16T12:39:12;6.22;;;3.90;;
54795;SDS011;40693;43.884;20.340;2023-04-16T12:41:40;7.70;;;4.78;;
54795;SDS011;40693;43.884;20.340;2023-04-16T12:44:11;9.65;;;4.93;;
54795;SDS011;40693;43.884;20.340;2023-04-16T12:46:42;9.15;;;5.93;;
54795;SDS011;40693;43.884;20.340;2023-04-16T12:49:09;8.65;;;5.30;;
54795;SDS011;40693;43.884;20.340;2023-04-16T12:51:36;10.65;;;7.35;;
54795;SDS011;40693;43.884;20.340;2023-04-16T12:54:05;13.60;;;8.73;;
54795;SDS011;40693;43.884;20.340;2023-04-16T12:56:32;13.38;;;7.00;;
54795;SDS011;40693;43.884;20.340;2023-04-16T12:58:58;14.35;;;8.18;;
54795;SDS011;40693;43.884;20.340;2023-04-16T13:01:23;11.93;;;6.38;;
54795;SDS011;40693;43.884;20.340;2023-04-16T13:03:49;8.32;;;5.57;;
54795;SDS011;40693;43.884;20.340;2023-04-16T13:06:15;11.32;;;6.55;;
54795;SDS011;40693;43.884;20.340;2023-04-16T13:08:42;8.80;;;6.40;;
54795;SDS011;40693;43.884;20.340;2023-04-16T13:11:08;10.18;;;6.30;;
54795;SDS011;40693;43.884;20.340;2023-04-16T13:13:34;16.95;;;7.88;;
54795;SDS011;40693;43.884;20.340;2023-04-16T13:16:00;16.45;;;12.00;;
54795;SDS011;40693;43.884;20.340;2023-04-16T13:18:28;11.32;;;8.15;;
54795;SDS011;40693;43.884;20.340;2023-04-16T13:20:54;11.80;;;7.30;;
54795;SDS011;40693;43.884;20.340;2023-04-16T13:23:19;10.07;;;7.18;;
54795;SDS011;40693;43.884;20.340;2023-04-16T13:25:45;14.05;;;8.07;;
54795;SDS011;40693;43.884;20.340;2023-04-16T13:28:11;12.35;;;7.97;;
54795;SDS011;40693;43.884;20.340;2023-04-16T13:30:37;10.43;;;6.30;;
54795;SDS011;40693;43.884;20.340;2023-04-16T13:33:02;16.42;;;9.55;;
54795;SDS011;40693;43.884;20.340;2023-04-16T13:35:28;15.77;;;10.10;;
54795;SDS011;40693;43.884;20.340;2023-04-16T13:37:54;15.57;;;7.95;;
54795;SDS011;40693;43.884;20.340;2023-04-16T13:40:20;11.60;;;6.97;;
54795;SDS011;40693;43.884;20.340;2023-04-16T13:42:46;14.80;;;8.45;;
54795;SDS011;40693;43.884;20.340;2023-04-16T13:45:11;13.05;;;8.07;;
54795;SDS011;40693;43.884;20.340;2023-04-16T13:47:39;17.83;;;9.73;;
54795;SDS011;40693;43.884;20.340;2023-04-16T13:50:08;11.13;;;7.80;;
54795;SDS011;40693;43.884;20.340;2023-04-16T13:52:34;11.90;;;7.47;;
54795;SDS011;40693;43.884;20.340;2023-04-16T13:55:00;9.70;;;5.63;;
54795;SDS011;40693;43.884;20.340;2023-04-16T13:57:27;7.45;;;5.10;;
54795;SDS011;40693;43.884;20.340;2023-04-16T13:59:53;11.30;;;6.90;;
54795;SDS011;40693;43.884;20.340;2023-04-16T14:02:19;12.52;;;6.72;;
54795;SDS011;40693;43.884;20.340;2023-04-16T14:04:46;10.43;;;7.07;;
54795;SDS011;40693;43.884;20.340;2023-04-16T14:07:12;8.93;;;5.50;;
54795;SDS011;40693;43.884;20.340;2023-04-16T14:09:39;13.45;;;6.38;;
54795;SDS011;40693;43.884;20.340;2023-04-16T14:12:05;11.32;;;6.22;;
54795;SDS011;40693;43.884;20.340;2023-04-16T14:14:31;12.25;;;8.40;;
54795;SDS011;40693;43.884;20.340;2023-04-16T14:16:57;10.55;;;7.35;;
54795;SDS011;40693;43.884;20.340;2023-04-16T14:19:23;14.30;;;8.10;;
54795;SDS011;40693;43.884;20.340;2023-04-16T14:21:49;11.02;;;7.15;;
54795;SDS011;40693;43.884;20.340;2023-04-16T14:24:15;11.40;;;7.38;;
54795;SDS011;40693;43.884;20.340;2023-04-16T14:26:43;9.95;;;5.25;;
54795;SDS011;40693;43.884;20.340;2023-04-16T14:29:09;10.95;;;5.53;;
54795;SDS011;40693;43.884;20.340;2023-04-16T14:31:35;12.82;;;7.95;;